Latest Weather Observations for South Channel Island

IDV60901

Issued at 5:21 am EST Sunday 30 April 2017 (issued every 10 minutes, with the page automatically refreshed every 10 minutes)

About weather observations | Map of Melbourne area stations | Latest observations for Melbourne area | Other Formats
Station Details ID: 086344 Name: SOUTH CHANNEL ISLAND Lat: -38.31 Lon: 144.80 Height: 9.0 m
Data from the previous 72 hours. | See also: Recent months for locations in Victoria
Date/Time
EST
Temp
°C
App
Temp
°C
Dew
Point
°C
Rel
Hum
%
Delta-T
°C
Wind Press
QNH
hPa
Press
MSL
hPa
Rain since
9am
mm
Dir  Spd
km/h
Gust
km/h
Spd
kts
Gust
kts
30/05:00am - - - - - WNW 17 20 9 11 - - -
30/04:30am - - - - - WNW 19 22 10 12 - - -
30/04:00am - - - - - WNW 19 24 10 13 - - -
30/03:30am - - - - - WNW 24 26 13 14 - - -
30/03:00am - - - - - WNW 24 28 13 15 - - -
30/02:30am - - - - - WNW 20 24 11 13 - - -
30/02:00am - - - - - WNW 20 22 11 12 - - -
30/01:30am - - - - - WNW 19 20 10 11 - - -
30/01:00am - - - - - WNW 17 19 9 10 - - -
30/12:30am - - - - - SW 17 19 9 10 - - -
30/12:00am - - - - - WSW 15 19 8 10 - - -
 
Date/Time
EST
Temp
°C
App
Temp
°C
Dew
Point
°C
Rel
Hum
%
Delta-T
°C
Wind Press
QNH
hPa
Press
MSL
hPa
Rain since
9am
mm
Dir  Spd
km/h
Gust
km/h
Spd
kts
Gust
kts
29/11:30pm - - - - - WSW 13 19 7 10 - - -
29/11:00pm - - - - - SW 19 24 10 13 - - -
29/10:30pm - - - - - SW 20 26 11 14 - - -
29/10:00pm - - - - - SW 19 22 10 12 - - -
29/09:30pm - - - - - SW 22 26 12 14 - - -
29/09:00pm - - - - - SW 20 24 11 13 - - -
29/08:30pm - - - - - SSW 24 30 13 16 - - -
29/08:00pm - - - - - SSW 24 30 13 16 - - -
29/07:30pm - - - - - SSW 28 32 15 17 - - -
29/07:00pm - - - - - SW 28 33 15 18 - - -
29/06:30pm - - - - - SW 28 33 15 18 - - -
29/06:00pm - - - - - SW 30 35 16 19 - - -
29/05:30pm - - - - - SW 32 37 17 20 - - -
29/05:00pm - - - - - SW 32 37 17 20 - - -
29/04:30pm - - - - - SSW 32 33 17 18 - - -
29/04:00pm - - - - - SW 30 37 16 20 - - -
29/03:30pm - - - - - SW 33 39 18 21 - - -
29/03:00pm - - - - - SW 32 41 17 22 - - -
29/02:30pm - - - - - SW 33 39 18 21 - - -
29/02:00pm - - - - - SW 33 39 18 21 - - -
29/01:30pm - - - - - SW 33 41 18 22 - - -
29/01:00pm - - - - - SW 35 39 19 21 - - -
29/12:30pm - - - - - SW 32 37 17 20 - - -
29/12:00pm - - - - - WSW 28 33 15 18 - - -
29/11:30am - - - - - W 26 30 14 16 - - -
29/11:00am - - - - - W 28 32 15 17 - - -
29/10:30am - - - - - W 28 32 15 17 - - -
29/10:00am - - - - - W 32 39 17 21 - - -
29/09:30am - - - - - W 32 35 17 19 - - -
29/09:00am - - - - - WNW 28 33 15 18 - - -
29/08:30am - - - - - WNW 26 30 14 16 - - -
29/08:00am - - - - - WNW 24 30 13 16 - - -
29/07:30am - - - - - WNW 26 32 14 17 - - -
29/07:00am - - - - - WNW 32 37 17 20 - - -
29/06:30am - - - - - WNW 30 35 16 19 - - -
29/06:00am - - - - - WNW 32 37 17 20 - - -
29/05:30am - - - - - WNW 32 35 17 19 - - -
29/05:00am - - - - - WNW 35 39 19 21 - - -
29/04:30am - - - - - WNW 33 41 18 22 - - -
29/04:00am - - - - - WNW 37 41 20 22 - - -
29/03:30am - - - - - WNW 35 39 19 21 - - -
29/03:00am - - - - - WNW 33 41 18 22 - - -
29/02:30am - - - - - WNW 37 44 20 24 - - -
29/02:00am - - - - - WNW 35 41 19 22 - - -
29/01:30am - - - - - WNW 33 41 18 22 - - -
29/01:00am - - - - - WNW 32 39 17 21 - - -
29/12:30am - - - - - WNW 33 39 18 21 - - -
29/12:00am - - - - - WNW 30 35 16 19 - - -
 
Date/Time
EST
Temp
°C
App
Temp
°C
Dew
Point
°C
Rel
Hum
%
Delta-T
°C
Wind Press
QNH
hPa
Press
MSL
hPa
Rain since
9am
mm
Dir  Spd
km/h
Gust
km/h
Spd
kts
Gust
kts
28/11:30pm - - - - - WNW 35 39 19 21 - - -
28/11:00pm - - - - - WNW 37 43 20 23 - - -
28/10:30pm - - - - - WNW 33 41 18 22 - - -
28/10:00pm - - - - - WNW 37 46 20 25 - - -
28/09:30pm - - - - - WNW 35 41 19 22 - - -
28/09:00pm - - - - - WNW 32 35 17 19 - - -
28/08:30pm - - - - - W 30 33 16 18 - - -
28/08:00pm - - - - - WNW 28 32 15 17 - - -
28/07:30pm - - - - - W 35 41 19 22 - - -
28/07:00pm - - - - - WNW 35 41 19 22 - - -
28/06:30pm - - - - - WNW 33 37 18 20 - - -
28/06:00pm - - - - - W 35 41 19 22 - - -
28/05:30pm - - - - - W 35 39 19 21 - - -
28/05:00pm - - - - - W 32 35 17 19 - - -
28/04:30pm - - - - - W 30 33 16 18 - - -
28/04:00pm - - - - - W 30 35 16 19 - - -
28/03:30pm - - - - - W 28 30 15 16 - - -
28/03:00pm - - - - - W 26 30 14 16 - - -
28/02:30pm - - - - - WNW 28 30 15 16 - - -
28/02:00pm - - - - - WNW 30 33 16 18 - - -
28/01:30pm - - - - - W 30 33 16 18 - - -
28/01:00pm - - - - - W 37 44 20 24 - - -
28/12:30pm - - - - - W 35 41 19 22 - - -
28/12:00pm - - - - - W 30 33 16 18 - - -
28/11:30am - - - - - W 35 39 19 21 - - -
28/11:00am - - - - - WNW 33 39 18 21 - - -
28/10:30am - - - - - WNW 35 41 19 22 - - -
28/10:00am - - - - - WNW 35 41 19 22 - - -
28/09:30am - - - - - WNW 28 35 15 19 - - -
28/09:00am - - - - - WNW 33 39 18 21 - - -
28/08:30am - - - - - WNW 32 37 17 20 - - -
28/08:00am - - - - - NW 32 37 17 20 - - -
28/07:30am - - - - - WNW 33 39 18 21 - - -
28/07:00am - - - - - WNW 35 39 19 21 - - -
28/06:30am - - - - - WNW 41 48 22 26 - - -
28/06:00am - - - - - WNW 39 44 21 24 - - -
28/05:30am - - - - - WNW 37 46 20 25 - - -
28/05:00am - - - - - WNW 37 43 20 23 - - -
28/04:30am - - - - - WNW 39 44 21 24 - - -
28/04:00am - - - - - WNW 35 39 19 21 - - -
28/03:30am - - - - - WNW 37 43 20 23 - - -
28/03:00am - - - - - WNW 35 41 19 22 - - -
28/02:30am - - - - - WNW 35 43 19 23 - - -
28/02:00am - - - - - WNW 37 41 20 22 - - -
28/01:30am - - - - - WNW 33 39 18 21 - - -
28/01:00am - - - - - WNW 33 39 18 21 - - -
28/12:30am - - - - - NW 33 39 18 21 - - -
28/12:00am - - - - - WNW 32 39 17 21 - - -
 
Date/Time
EST
Temp
°C
App
Temp
°C
Dew
Point
°C
Rel
Hum
%
Delta-T
°C
Wind Press
QNH
hPa
Press
MSL
hPa
Rain since
9am
mm
Dir  Spd
km/h
Gust
km/h
Spd
kts
Gust
kts
27/11:30pm - - - - - WNW 33 39 18 21 - - -
27/11:00pm - - - - - WNW 32 35 17 19 - - -
27/10:30pm - - - - - WNW 30 35 16 19 - - -
27/10:00pm - - - - - WNW 32 35 17 19 - - -
27/09:30pm - - - - - WNW 30 35 16 19 - - -
27/09:00pm - - - - - WNW 26 30 14 16 - - -
27/08:30pm - - - - - WNW 24 30 13 16 - - -
27/08:00pm - - - - - WNW 26 30 14 16 - - -
27/07:30pm - - - - - WNW 24 28 13 15 - - -
27/07:00pm - - - - - NW 26 30 14 16 - - -
27/06:30pm - - - - - NW 17 22 9 12 - - -
27/06:00pm - - - - - N 9 13 5 7 - - -
27/05:30pm - - - - - NE 6 9 3 5 - - -
27/05:00pm - - - - - SSE 13 19 7 10 - - -
27/04:30pm - - - - - SSW 11 19 6 10 - - -
27/04:00pm - - - - - S 13 17 7 9 - - -
27/03:30pm - - - - - SW 24 28 13 15 - - -
27/03:00pm - - - - - WSW 11 13 6 7 - - -
27/02:30pm - - - - - SSW 22 33 12 18 - - -
27/02:00pm - - - - - SSW 20 30 11 16 - - -
27/01:30pm - - - - - SSW 28 35 15 19 - - -
27/01:00pm - - - - - SW 28 35 15 19 - - -
27/12:30pm - - - - - SSW 37 43 20 23 - - -
27/12:00pm - - - - - SW 35 41 19 22 - - -
27/11:30am - - - - - SW 33 41 18 22 - - -
27/11:00am - - - - - SSW 35 41 19 22 - - -
27/10:30am - - - - - SSW 33 39 18 21 - - -
27/10:00am - - - - - SSW 33 39 18 21 - - -
27/09:30am - - - - - SSW 37 44 20 24 - - -
27/09:00am - - - - - S 35 44 19 24 - - -
27/08:45am - - - - - SSW 37 44 20 24 - - -
27/08:30am - - - - - SW 35 43 19 23 - - -
27/08:17am - - - - - SW 39 48 21 26 - - -
27/08:00am - - - - - SSW 35 43 19 23 - - -
27/07:30am - - - - - SSW 35 43 19 23 - - -
27/07:00am - - - - - SSW 39 46 21 25 - - -
27/06:30am - - - - - SSW 37 44 20 24 - - -
27/06:00am - - - - - SSW 30 41 16 22 - - -
27/05:30am - - - - - SSW 35 43 19 23 - - -

Latest Capital City Observations: Canberra | Sydney | Melbourne | Brisbane | Adelaide | Perth | Hobart | Darwin

Other Formats:

Comma delimited format used in spreadsheet applications
http://www.bom.gov.au/fwo/IDV60901/IDV60901.94853.axf

JavaScript Object Notation format (JSON) in row-major order
http://www.bom.gov.au/fwo/IDV60901/IDV60901.94853.json